Opa Locka, Florida
Current Conditions -  °F | °C
As of 6:53 AM on Wednesday 28 Jan 2015 (Local Time) from KOPF Reporting Station
Clear Clear  
Wind Chill: 53°   Ceiling: Unl
Heat Index: 53°   Visibility: 10mi
Dew Point: 43°   Wind: 7mph
Humidity: 69%   Direction: 350°N
Pressure: 30.13"   Gusts: NA
Location:  25.92°N, 80.28°W
Report Text: KOPF 281153Z 35006KT 10SM CLR 12/06 A3013 RMK AO2 SLP202 T01170061 10156 20117 53024
Loading
Personal Weather Stations






























Interactive Weather Map New forecast layout! Learn more

10-Day Weather Forecast

Advertisements
Track Severe Weather on mobile